Time;durP1;ratioP1;P1;durP2;ratioP2;P2;SDS_P1;SDS_P2;PMS_P1;PMS_P2;Temp;Humidity;BMP_temperature;BMP_pressure;BME280_temperature;BME280_humidity;BME280_pressure;Samples;Min_cycle;Max_cycle;Signal;HPM_P1;HPM_P2
2022/11/21 00:01:28;;;;;;;20.55;11.75;;;2.30;99.90;;;;;;5095595;28;20039;-69
2022/11/21 00:03:53;;;;;;;18.73;12.27;;;2.30;99.90;;;;;;5113019;28;20035;-70
2022/11/21 00:06:19;;;;;;;18.55;11.63;;;2.30;99.90;;;;;;5112483;28;20042;-69
2022/11/21 00:08:45;;;;;;;19.70;12.10;;;2.30;99.90;;;;;;5113005;28;20052;-70
2022/11/21 00:11:12;;;;;;;17.27;10.93;;;2.30;99.90;;;;;;5112243;28;20043;-70
2022/11/21 00:13:38;;;;;;;17.15;11.60;;;2.30;99.90;;;;;;5094736;28;20044;-69
2022/11/21 00:16:12;;;;;;;19.23;12.43;;;2.30;99.90;;;;;;5112514;28;20092;-69
2022/11/21 00:18:38;;;;;;;17.13;11.75;;;2.30;99.90;;;;;;5111635;28;20051;-69
2022/11/21 00:21:06;;;;;;;17.92;10.38;;;2.20;99.90;;;;;;5111866;28;20051;-69
2022/11/21 00:23:32;;;;;;;16.95;11.35;;;2.20;99.90;;;;;;5113702;28;20032;-69
2022/11/21 00:25:58;;;;;;;21.23;12.75;;;2.20;99.90;;;;;;5112731;28;20036;-69
2022/11/21 00:28:24;;;;;;;16.58;11.23;;;2.20;99.90;;;;;;5111655;28;20092;-69
2022/11/21 00:30:49;;;;;;;17.50;10.98;;;2.20;99.90;;;;;;5112125;28;20039;-69
2022/11/21 00:33:15;;;;;;;17.67;11.07;;;2.20;99.90;;;;;;5111072;28;20107;-69
2022/11/21 00:35:40;;;;;;;16.17;10.50;;;2.20;99.90;;;;;;5111995;28;20056;-69
2022/11/21 00:38:06;;;;;;;19.73;12.98;;;2.20;99.90;;;;;;5112671;28;20056;-69
2022/11/21 00:40:31;;;;;;;18.75;12.32;;;2.20;99.90;;;;;;5094320;28;20035;-69
2022/11/21 00:42:57;;;;;;;20.25;11.75;;;2.10;99.90;;;;;;5095370;28;20042;-69
2022/11/21 00:45:23;;;;;;;19.88;11.45;;;2.10;99.90;;;;;;5111302;28;20035;-69
2022/11/21 00:47:48;;;;;;;18.00;12.07;;;2.10;99.90;;;;;;5111126;28;20035;-69
2022/11/21 00:50:14;;;;;;;18.02;11.50;;;2.10;99.90;;;;;;5112712;28;20040;-69
2022/11/21 00:52:39;;;;;;;16.88;10.50;;;2.00;99.90;;;;;;5111697;28;20442;-70
2022/11/21 00:55:05;;;;;;;16.00;10.90;;;2.00;99.90;;;;;;5112023;28;20039;-69
2022/11/21 00:57:31;;;;;;;18.88;12.05;;;1.90;99.90;;;;;;5111742;28;20119;-70
2022/11/21 00:59:56;;;;;;;18.20;11.38;;;1.90;99.90;;;;;;5095068;28;20035;-69
2022/11/21 01:02:22;;;;;;;21.45;12.07;;;1.90;99.90;;;;;;5111694;28;20040;-70
2022/11/21 01:04:48;;;;;;;20.35;11.63;;;1.80;99.90;;;;;;5111688;28;20404;-70
2022/11/21 01:07:14;;;;;;;18.50;12.32;;;1.80;99.90;;;;;;5093229;28;20458;-69
2022/11/21 01:09:40;;;;;;;19.38;11.30;;;1.70;99.90;;;;;;5110801;28;20057;-69
2022/11/21 01:12:06;;;;;;;17.70;10.98;;;1.70;99.90;;;;;;5111426;28;20141;-69
2022/11/21 01:14:31;;;;;;;19.20;12.23;;;1.60;99.90;;;;;;5111459;28;20488;-70
2022/11/21 01:16:57;;;;;;;19.52;11.73;;;1.60;99.90;;;;;;5110949;28;20184;-69
2022/11/21 01:19:22;;;;;;;17.05;11.30;;;1.50;99.90;;;;;;5110995;28;20054;-69
2022/11/21 01:21:48;;;;;;;16.23;10.77;;;1.50;99.90;;;;;;5110542;28;20043;-69
2022/11/21 01:24:14;;;;;;;20.02;11.90;;;1.40;99.90;;;;;;5093999;28;20118;-69
2022/11/21 01:26:39;;;;;;;21.27;12.38;;;1.40;99.90;;;;;;5112966;28;20048;-69
2022/11/21 01:29:06;;;;;;;19.58;11.73;;;1.30;99.90;;;;;;5110122;28;20036;-69
2022/11/21 01:31:31;;;;;;;17.52;11.10;;;1.20;99.90;;;;;;5112969;28;20071;-69
2022/11/21 01:33:58;;;;;;;18.95;11.00;;;1.10;99.90;;;;;;5112296;28;20569;-69
2022/11/21 01:36:30;;;;;;;19.05;12.20;;;1.10;99.90;;;;;;5109878;28;20062;-69
2022/11/21 01:38:58;;;;;;;19.92;13.05;;;1.00;99.90;;;;;;5112666;28;20047;-69
2022/11/21 01:41:34;;;;;;;19.83;12.48;;;1.00;99.90;;;;;;5112028;28;20048;-70
2022/11/21 01:44:05;;;;;;;;;;;1.00;99.90;;;;;;5112352;28;20028;-70
2022/11/21 01:46:31;;;;;;;18.80;11.95;;;1.00;99.90;;;;;;5112397;28;19922;-71
2022/11/21 01:49:13;;;;;;;17.80;11.82;;;0.90;99.90;;;;;;5112542;28;20035;-70
2022/11/21 01:51:49;;;;;;;19.75;12.70;;;0.90;99.90;;;;;;5093338;28;20043;-70
2022/11/21 01:54:34;;;;;;;17.17;10.70;;;0.80;99.90;;;;;;5110564;28;20035;-70
2022/11/21 01:57:13;;;;;;;18.15;11.73;;;0.80;99.90;;;;;;5111512;28;20366;-70
2022/11/21 01:59:56;;;;;;;18.55;12.60;;;0.80;99.90;;;;;;5111195;28;20047;-70
2022/11/21 02:02:27;;;;;;;18.80;11.93;;;0.70;99.90;;;;;;5110916;28;20172;-70
2022/11/21 02:04:54;;;;;;;18.52;11.55;;;0.70;99.90;;;;;;5110327;28;20096;-70
2022/11/21 02:07:21;;;;;;;19.60;12.38;;;0.70;99.90;;;;;;5110351;28;20079;-70
2022/11/21 02:09:52;;;;;;;17.10;10.73;;;0.70;99.90;;;;;;5094073;28;20172;-70
2022/11/21 02:12:28;;;;;;;14.93;10.38;;;0.70;99.90;;;;;;5109870;28;20055;-70
2022/11/21 02:14:54;;;;;;;18.83;11.77;;;0.60;99.90;;;;;;5111255;28;20484;-70
2022/11/21 02:17:20;;;;;;;19.33;12.32;;;0.60;99.90;;;;;;5110583;28;20051;-70
2022/11/21 02:20:05;;;;;;;20.95;11.23;;;0.50;99.90;;;;;;5095796;28;20040;-70
2022/11/21 02:22:52;;;;;;;19.70;11.68;;;0.50;99.90;;;;;;5115028;28;20031;-70
2022/11/21 02:25:26;;;;;;;18.77;11.80;;;0.50;99.90;;;;;;5114719;28;20043;-70
2022/11/21 02:27:57;;;;;;;20.27;12.23;;;0.50;99.90;;;;;;5114676;28;20115;-70
2022/11/21 02:30:23;;;;;;;17.85;12.05;;;0.50;99.90;;;;;;5115581;28;20270;-70
2022/11/21 02:32:49;;;;;;;18.63;12.30;;;0.50;99.90;;;;;;5113743;28;20039;-70
2022/11/21 02:35:17;;;;;;;17.80;11.60;;;0.50;99.90;;;;;;5113541;28;20055;-69
2022/11/21 02:37:50;;;;;;;20.73;13.63;;;0.40;99.90;;;;;;5114368;28;20076;-70
2022/11/21 02:40:24;;;;;;;20.17;13.70;;;0.40;99.90;;;;;;5113083;28;20043;-70
2022/11/21 02:42:55;;;;;;;23.38;14.68;;;0.40;99.90;;;;;;5115579;27;20050;-70
2022/11/21 02:45:29;;;;;;;19.45;12.93;;;0.40;99.90;;;;;;5113626;28;20050;-70
2022/11/21 02:47:55;;;;;;;18.23;12.45;;;0.40;99.90;;;;;;5096768;28;20047;-70
2022/11/21 02:50:30;;;;;;;19.75;12.38;;;0.40;99.90;;;;;;5113776;28;20548;-70
2022/11/21 02:52:56;;;;;;;21.77;13.32;;;0.30;99.90;;;;;;5097025;28;20044;-70
2022/11/21 02:55:23;;;;;;;21.30;13.10;;;0.30;99.90;;;;;;5113006;28;20096;-70
2022/11/21 02:57:48;;;;;;;21.05;13.50;;;0.30;99.90;;;;;;5113967;28;20043;-70
2022/11/21 03:00:15;;;;;;;18.63;12.40;;;0.30;99.90;;;;;;5112747;28;20046;-70
2022/11/21 03:02:41;;;;;;;18.88;11.90;;;0.30;99.90;;;;;;5114165;28;20073;-70
2022/11/21 03:05:09;;;;;;;18.95;11.80;;;0.30;99.90;;;;;;5113337;28;20039;-71
2022/11/21 03:07:35;;;;;;;18.23;12.25;;;0.20;99.90;;;;;;5114524;28;20040;-70
2022/11/21 03:10:00;;;;;;;20.73;12.13;;;0.20;99.90;;;;;;5114982;28;20047;-70
2022/11/21 03:12:26;;;;;;;21.48;13.23;;;0.20;99.90;;;;;;5096209;28;20122;-70
2022/11/21 03:14:52;;;;;;;22.25;13.90;;;0.10;99.90;;;;;;5095888;28;20039;-70
2022/11/21 03:17:18;;;;;;;19.38;13.13;;;0.10;99.90;;;;;;5114100;28;20088;-70
2022/11/21 03:19:43;;;;;;;17.35;12.10;;;0.10;99.90;;;;;;5113631;28;20122;-70
2022/11/21 03:22:09;;;;;;;19.63;12.48;;;0.10;99.90;;;;;;5113484;28;20111;-70
2022/11/21 03:24:35;;;;;;;18.80;12.10;;;0.00;99.90;;;;;;5113838;28;20035;-70
2022/11/21 03:27:00;;;;;;;21.15;12.35;;;0.00;99.90;;;;;;5113539;28;20586;-71
2022/11/21 03:29:26;;;;;;;21.23;13.95;;;0.10;99.90;;;;;;5112222;28;20058;-70
2022/11/21 03:31:51;;;;;;;22.25;14.48;;;0.10;99.90;;;;;;5113865;28;20092;-70
2022/11/21 03:34:17;;;;;;;22.05;13.75;;;0.10;99.90;;;;;;5113896;28;20044;-70
2022/11/21 03:36:43;;;;;;;20.85;13.75;;;0.10;99.90;;;;;;5112303;28;20043;-70
2022/11/21 03:39:09;;;;;;;23.13;13.65;;;0.10;99.90;;;;;;5112892;28;20072;-70
2022/11/21 03:41:34;;;;;;;23.55;14.05;;;0.20;99.90;;;;;;5113234;28;20038;-70
2022/11/21 03:44:11;;;;;;;20.50;13.75;;;0.10;99.90;;;;;;5113640;28;20035;-70
2022/11/21 03:46:40;;;;;;;19.73;13.48;;;0.10;99.90;;;;;;5113101;28;20514;-70
2022/11/21 03:49:06;;;;;;;24.15;13.65;;;0.10;99.90;;;;;;5112519;28;20046;-70
2022/11/21 03:51:33;;;;;;;20.80;13.63;;;0.10;99.90;;;;;;5112087;28;20043;-70
2022/11/21 03:53:59;;;;;;;22.33;14.20;;;0.00;99.90;;;;;;5096269;28;20349;-70
2022/11/21 03:56:25;;;;;;;22.38;14.65;;;0.00;99.90;;;;;;5112767;28;20038;-70
2022/11/21 03:58:51;;;;;;;22.33;14.15;;;0.00;99.90;;;;;;5113997;28;20079;-70
2022/11/21 04:01:16;;;;;;;21.88;13.85;;;0.00;99.90;;;;;;5112167;28;20078;-70
2022/11/21 04:03:42;;;;;;;21.88;13.63;;;0.10;99.90;;;;;;5111959;28;20070;-71
2022/11/21 04:06:10;;;;;;;22.25;13.32;;;0.00;99.90;;;;;;5113324;28;20036;-70
2022/11/21 04:08:35;;;;;;;21.98;13.80;;;0.00;99.90;;;;;;5112942;28;20031;-70
2022/11/21 04:11:01;;;;;;;24.42;13.80;;;0.00;99.90;;;;;;5112204;28;20122;-70
2022/11/21 04:13:27;;;;;;;24.73;15.18;;;0.00;99.90;;;;;;5112076;28;20201;-70
2022/11/21 04:15:53;;;;;;;22.17;13.20;;;-0.10;99.90;;;;;;5112477;28;20057;-70
2022/11/21 04:18:18;;;;;;;25.00;14.25;;;-0.10;99.90;;;;;;5111062;28;20039;-70
2022/11/21 04:20:44;;;;;;;21.50;13.60;;;-0.10;99.90;;;;;;5112628;28;20027;-70
2022/11/21 04:23:10;;;;;;;22.73;14.20;;;-0.10;99.90;;;;;;5094902;28;20031;-70
2022/11/21 04:25:35;;;;;;;24.38;16.15;;;-0.10;99.90;;;;;;5111749;28;20063;-70
2022/11/21 04:28:03;;;;;;;21.05;13.50;;;-0.10;99.90;;;;;;5112640;28;20392;-70
2022/11/21 04:30:29;;;;;;;24.30;15.60;;;-0.10;99.90;;;;;;5113471;27;20136;-70
2022/11/21 04:32:55;;;;;;;29.35;17.83;;;-0.10;99.90;;;;;;5094449;28;20511;-70
2022/11/21 04:35:23;;;;;;;27.52;16.00;;;-0.10;99.90;;;;;;5111345;28;20055;-70
2022/11/21 04:37:49;;;;;;;27.13;15.63;;;-0.10;99.90;;;;;;5111999;28;20055;-71
2022/11/21 04:40:15;;;;;;;28.38;17.20;;;-0.10;99.90;;;;;;5110853;28;20042;-71
2022/11/21 04:42:45;;;;;;;27.08;15.45;;;-0.10;99.90;;;;;;5112027;28;20383;-70
2022/11/21 04:45:12;;;;;;;22.70;15.30;;;-0.10;99.90;;;;;;5112781;28;20035;-70
2022/11/21 04:47:40;;;;;;;22.20;15.57;;;-0.10;99.90;;;;;;5111408;28;20158;-70
2022/11/21 04:50:06;;;;;;;25.13;17.63;;;-0.10;99.90;;;;;;5112780;28;20509;-70
2022/11/21 04:52:32;;;;;;;25.85;18.30;;;-0.20;99.90;;;;;;5111920;28;20043;-70
2022/11/21 04:54:58;;;;;;;25.27;16.92;;;-0.10;99.90;;;;;;5112580;28;20043;-70
2022/11/21 04:57:24;;;;;;;26.08;15.93;;;-0.20;99.90;;;;;;5111461;28;20043;-70
2022/11/21 04:59:49;;;;;;;27.30;16.00;;;-0.20;99.90;;;;;;5111193;28;20438;-70
2022/11/21 05:02:15;;;;;;;27.83;16.77;;;-0.20;99.90;;;;;;5111454;28;20031;-70
2022/11/21 05:04:40;;;;;;;23.35;13.95;;;-0.20;99.90;;;;;;5111614;28;20031;-70
2022/11/21 05:07:06;;;;;;;24.75;15.90;;;-0.30;99.90;;;;;;5110714;28;20160;-70
2022/11/21 05:09:32;;;;;;;23.38;14.10;;;-0.30;99.90;;;;;;5111994;28;20043;-71
2022/11/21 05:14:41;;;;;;;27.38;16.05;;;-0.40;99.90;;;;;;5111949;28;20069;-70
2022/11/21 05:17:07;;;;;;;23.42;14.98;;;-0.40;99.90;;;;;;5110825;28;20048;-71
2022/11/21 05:19:33;;;;;;;29.60;17.90;;;-0.40;99.90;;;;;;5094603;28;20031;-70
2022/11/21 05:21:58;;;;;;;29.35;17.23;;;-0.50;99.90;;;;;;5110866;28;20062;-70
2022/11/21 05:24:24;;;;;;;31.60;17.63;;;-0.50;99.90;;;;;;5111195;28;20503;-71
2022/11/21 05:26:49;;;;;;;28.83;17.73;;;-0.50;99.90;;;;;;5111597;28;20040;-70
2022/11/21 05:29:15;;;;;;;31.55;18.73;;;-0.50;99.90;;;;;;5110022;28;20039;-71
2022/11/21 05:31:41;;;;;;;25.52;16.17;;;-0.50;99.90;;;;;;5112608;28;20035;-70
2022/11/21 05:34:07;;;;;;;31.25;20.25;;;-0.40;99.90;;;;;;5112345;28;20035;-71
2022/11/21 05:36:33;;;;;;;29.73;18.70;;;-0.40;99.90;;;;;;5110345;28;20121;-70
2022/11/21 05:38:58;;;;;;;32.45;19.13;;;-0.40;99.90;;;;;;5111210;28;20051;-70
2022/11/21 05:41:24;;;;;;;32.80;19.88;;;-0.40;99.90;;;;;;5110747;28;20051;-71
2022/11/21 05:43:50;;;;;;;41.03;22.75;;;-0.30;99.90;;;;;;5093293;28;20038;-71
2022/11/21 05:46:18;;;;;;;33.47;20.35;;;-0.30;99.90;;;;;;5111000;28;20050;-71
2022/11/21 05:48:44;;;;;;;37.33;21.75;;;-0.20;99.90;;;;;;5094352;28;20549;-70
2022/11/21 05:51:10;;;;;;;31.50;20.67;;;-0.30;99.90;;;;;;5109786;28;20100;-71
2022/11/21 05:53:36;;;;;;;38.25;21.60;;;-0.30;99.90;;;;;;5112339;28;20083;-71
2022/11/21 05:56:05;;;;;;;31.98;20.52;;;-0.20;99.90;;;;;;5097417;28;20039;-71
2022/11/21 05:58:30;;;;;;;36.15;22.25;;;-0.20;99.90;;;;;;5114907;28;20092;-71
2022/11/21 06:00:57;;;;;;;40.17;20.95;;;-0.10;99.90;;;;;;5115398;28;20434;-71
2022/11/21 06:03:26;;;;;;;39.90;21.13;;;-0.10;99.90;;;;;;5113751;28;20047;-71
2022/11/21 06:05:57;;;;;;;31.67;18.75;;;-0.10;99.90;;;;;;5115244;28;20040;-71
2022/11/21 06:08:23;;;;;;;29.20;17.90;;;0.00;99.90;;;;;;5116050;28;20062;-71
2022/11/21 06:10:48;;;;;;;32.15;20.00;;;0.00;99.90;;;;;;5115404;28;20036;-71
2022/11/21 06:13:23;;;;;;;32.22;18.45;;;0.10;99.90;;;;;;5114178;28;20039;-71
2022/11/21 06:15:53;;;;;;;33.85;19.48;;;0.10;99.90;;;;;;5116404;28;20400;-71
2022/11/21 06:18:19;;;;;;;31.08;18.73;;;0.10;99.90;;;;;;5113545;28;20051;-71
2022/11/21 06:20:45;;;;;;;28.83;18.67;;;0.10;99.90;;;;;;5097857;28;20036;-71
2022/11/21 06:23:11;;;;;;;32.80;19.33;;;0.10;99.90;;;;;;5114213;28;20039;-71
2022/11/21 06:25:37;;;;;;;30.27;18.50;;;0.10;99.90;;;;;;5114859;28;20365;-71
2022/11/21 06:28:03;;;;;;;31.38;19.27;;;0.20;99.90;;;;;;5116089;28;20042;-71
2022/11/21 06:30:28;;;;;;;34.20;18.88;;;0.10;99.90;;;;;;5097512;28;20057;-71
2022/11/21 06:32:54;;;;;;;32.13;18.35;;;0.10;99.90;;;;;;5115296;28;20032;-71
2022/11/21 06:35:20;;;;;;;31.00;19.42;;;0.10;99.90;;;;;;5114976;28;20058;-71
2022/11/21 06:37:45;;;;;;;30.38;18.42;;;0.00;99.90;;;;;;5113345;28;20162;-71
2022/11/21 06:40:11;;;;;;;30.98;18.63;;;0.00;99.90;;;;;;5112798;28;20031;-71
2022/11/21 06:42:37;;;;;;;31.13;18.80;;;-0.10;99.90;;;;;;5115884;28;20040;-71
2022/11/21 06:45:03;;;;;;;30.60;19.55;;;0.00;99.90;;;;;;5114241;28;20468;-71
2022/11/21 06:47:33;;;;;;;34.47;19.75;;;0.00;99.90;;;;;;5113444;28;20043;-71
2022/11/21 06:49:59;;;;;;;33.97;19.98;;;0.00;99.90;;;;;;5113788;28;20039;-71
2022/11/21 06:52:25;;;;;;;29.67;19.70;;;0.00;99.90;;;;;;5113055;28;20093;-70
2022/11/21 06:54:50;;;;;;;29.92;17.38;;;0.00;99.90;;;;;;5114948;28;20039;-72
2022/11/21 06:57:16;;;;;;;33.63;22.05;;;-0.10;99.90;;;;;;5114869;28;20145;-71
2022/11/21 06:59:42;;;;;;;32.22;19.33;;;-0.10;99.90;;;;;;5114710;28;20451;-71
2022/11/21 07:02:14;;;;;;;31.73;19.23;;;0.00;99.90;;;;;;5109011;28;20036;-71
2022/11/21 07:04:40;;;;;;;34.42;20.70;;;-0.10;99.90;;;;;;5111180;28;20043;-71
2022/11/21 07:07:06;;;;;;;34.08;20.42;;;-0.10;99.90;;;;;;5109660;28;20031;-71
2022/11/21 07:09:32;;;;;;;31.02;20.63;;;-0.20;99.90;;;;;;5112002;28;20042;-71
2022/11/21 07:13:20;;;;;;;34.28;20.45;;;-0.20;99.90;;;;;;5111920;28;20067;-71
2022/11/21 07:14:44;;;;;;;32.47;18.10;;;-0.20;99.90;;;;;;5102866;27;20621;-71
2022/11/21 07:17:13;;;;;;;33.47;20.90;;;-0.20;99.90;;;;;;5101474;27;20485;-71
2022/11/21 07:19:39;;;;;;;33.50;19.08;;;-0.20;99.90;;;;;;5102222;27;20102;-71
2022/11/21 07:22:05;;;;;;;34.70;22.02;;;-0.20;99.90;;;;;;5101934;27;20047;-71
2022/11/21 07:24:31;;;;;;;38.30;22.15;;;-0.20;99.90;;;;;;5103923;27;20491;-71
2022/11/21 07:26:56;;;;;;;37.90;22.77;;;-0.30;99.90;;;;;;5122860;27;20126;-71
2022/11/21 07:29:22;;;;;;;35.65;23.08;;;-0.30;99.90;;;;;;5101999;27;20044;-71
2022/11/21 07:31:48;;;;;;;39.72;23.73;;;-0.40;99.90;;;;;;5113209;27;20416;-71
2022/11/21 07:34:13;;;;;;;35.63;21.83;;;-0.30;99.90;;;;;;5109672;28;20404;-71
2022/11/21 07:36:39;;;;;;;35.63;21.20;;;-0.40;99.90;;;;;;5109406;28;20452;-71
2022/11/21 07:39:05;;;;;;;33.15;22.05;;;-0.40;99.90;;;;;;5109783;28;20499;-71
2022/11/21 07:41:31;;;;;;;35.55;21.08;;;-0.30;99.90;;;;;;5109479;28;20047;-71
2022/11/21 07:43:57;;;;;;;30.90;20.20;;;-0.30;99.90;;;;;;5109662;28;20087;-71
2022/11/21 07:46:23;;;;;;;29.45;18.30;;;-0.40;99.90;;;;;;5092690;28;20456;-71
2022/11/21 07:48:49;;;;;;;34.80;20.27;;;-0.30;99.90;;;;;;5108843;28;20156;-71
2022/11/21 07:51:15;;;;;;;56.03;35.65;;;-0.40;99.90;;;;;;5110600;28;20126;-71
2022/11/21 07:53:40;;;;;;;37.38;22.95;;;-0.30;99.90;;;;;;5110387;28;20039;-71
2022/11/21 07:56:08;;;;;;;33.58;22.05;;;-0.30;99.90;;;;;;5108680;28;20058;-71
2022/11/21 07:58:34;;;;;;;45.45;29.35;;;-0.20;99.90;;;;;;5109950;28;20039;-71
2022/11/21 08:01:05;;;;;;;91.05;52.78;;;-0.10;99.90;;;;;;5110678;28;20042;-71
2022/11/21 08:03:32;;;;;;;49.47;32.70;;;0.00;99.90;;;;;;5105818;27;20036;-71
2022/11/21 08:06:02;;;;;;;33.03;21.50;;;0.00;99.90;;;;;;5087152;28;20097;-71
2022/11/21 08:08:28;;;;;;;33.97;21.35;;;0.10;99.90;;;;;;5105372;28;20042;-71
2022/11/21 08:10:53;;;;;;;32.10;19.60;;;0.10;99.90;;;;;;5104878;28;20520;-70
2022/11/21 08:13:19;;;;;;;29.42;18.67;;;0.10;99.90;;;;;;5080356;28;20449;-70
2022/11/21 08:15:45;;;;;;;32.95;18.70;;;0.10;99.90;;;;;;5108669;28;20051;-71
2022/11/21 08:18:17;;;;;;;37.58;24.85;;;0.20;99.90;;;;;;5106845;28;20052;-71
2022/11/21 08:20:44;;;;;;;29.38;19.50;;;0.20;99.90;;;;;;5095628;28;20115;-71
2022/11/21 08:23:09;;;;;;;32.05;19.88;;;0.20;99.90;;;;;;5108460;28;20031;-71
2022/11/21 08:25:40;;;;;;;32.72;19.23;;;0.20;99.90;;;;;;5107910;28;20073;-71
2022/11/21 08:28:08;;;;;;;29.98;19.42;;;0.30;99.90;;;;;;5107911;28;20224;-71
2022/11/21 08:30:35;;;;;;;70.78;39.35;;;0.30;99.90;;;;;;5091540;28;20508;-71
2022/11/21 08:33:01;;;;;;;41.80;23.80;;;0.30;99.90;;;;;;5107682;28;20043;-70
2022/11/21 08:35:27;;;;;;;30.00;18.73;;;0.40;99.90;;;;;;5108400;28;20451;-71
2022/11/21 08:37:57;;;;;;;30.35;17.98;;;0.40;99.90;;;;;;5090162;28;20043;-71
2022/11/21 08:40:24;;;;;;;28.10;18.05;;;0.40;99.90;;;;;;5107221;28;20027;-71
2022/11/21 08:43:01;;;;;;;28.58;17.80;;;0.50;99.90;;;;;;5074781;28;20048;-71
2022/11/21 08:45:27;;;;;;;30.33;17.52;;;0.50;99.90;;;;;;5108122;28;20039;-71
2022/11/21 08:47:54;;;;;;;30.77;17.20;;;0.50;99.90;;;;;;5108651;28;20031;-71
2022/11/21 08:50:20;;;;;;;26.88;17.58;;;0.50;99.90;;;;;;5107583;28;20036;-70
2022/11/21 08:52:46;;;;;;;28.63;18.05;;;0.60;99.90;;;;;;5108761;28;20533;-71
2022/11/21 08:55:12;;;;;;;29.13;17.67;;;0.60;99.90;;;;;;5108005;28;20070;-70
2022/11/21 08:57:38;;;;;;;36.03;19.88;;;0.70;99.90;;;;;;5091748;28;20082;-71
2022/11/21 09:00:04;;;;;;;32.00;19.35;;;0.70;99.90;;;;;;5107832;28;20036;-71
2022/11/21 09:02:30;;;;;;;31.38;20.45;;;0.70;99.90;;;;;;5094703;28;20044;-71
2022/11/21 09:04:56;;;;;;;31.50;18.30;;;0.70;99.90;;;;;;5076331;28;20549;-70
2022/11/21 09:07:21;;;;;;;32.63;19.55;;;0.70;99.90;;;;;;5094853;28;20071;-71
2022/11/21 09:09:47;;;;;;;28.55;18.15;;;0.80;99.90;;;;;;5106819;28;20079;-70
2022/11/21 09:12:12;;;;;;;28.40;16.88;;;0.80;99.90;;;;;;5108216;28;20058;-70
2022/11/21 09:20:07;;;;;;;30.40;16.73;;;0.90;99.90;;;;;;5105240;28;20551;-70
2022/11/21 09:22:33;;;;;;;28.42;17.50;;;0.90;99.90;;;;;;5109603;28;20092;-71
2022/11/21 09:24:58;;;;;;;29.98;17.65;;;1.00;99.90;;;;;;5108691;28;20479;-71
2022/11/21 09:27:24;;;;;;;29.20;17.75;;;1.00;99.90;;;;;;5106817;28;20120;-70
2022/11/21 09:29:50;;;;;;;34.15;18.38;;;1.00;99.90;;;;;;5103370;27;20048;-70
2022/11/21 09:32:15;;;;;;;31.15;16.45;;;1.00;99.90;;;;;;5114039;28;20074;-70
2022/11/21 09:34:41;;;;;;;28.10;17.85;;;1.10;99.90;;;;;;5112090;28;20533;-70
2022/11/21 09:37:07;;;;;;;30.27;16.63;;;1.10;99.90;;;;;;5111717;28;20046;-70
2022/11/21 09:39:33;;;;;;;31.17;18.45;;;1.10;99.90;;;;;;5113993;28;20043;-70
2022/11/21 09:42:17;;;;;;;28.90;16.58;;;1.10;99.90;;;;;;5112368;28;20043;-69
2022/11/21 09:45:20;;;;;;;27.88;15.95;;;1.20;99.90;;;;;;5096082;28;20039;-70
2022/11/21 09:47:51;;;;;;;25.13;16.70;;;1.20;99.90;;;;;;5113157;28;20546;-70
2022/11/21 09:50:36;;;;;;;27.92;17.20;;;1.20;99.90;;;;;;5110404;28;20043;-69
2022/11/21 09:53:17;;;;;;;26.25;15.80;;;1.20;99.90;;;;;;5095285;28;20504;-70
2022/11/21 09:55:44;;;;;;;29.90;18.75;;;1.20;99.90;;;;;;5110312;28;20683;-70
2022/11/21 09:58:37;;;;;;;28.13;17.55;;;1.20;99.90;;;;;;5094219;28;20046;-70
2022/11/21 10:01:03;;;;;;;29.42;18.23;;;1.30;99.90;;;;;;5110349;28;20036;-70
2022/11/21 10:03:37;;;;;;;29.73;18.55;;;1.30;99.90;;;;;;5111128;28;20039;-70
2022/11/21 10:06:47;;;;;;;26.52;17.77;;;1.30;99.90;;;;;;5111907;28;20050;-70
2022/11/21 10:09:37;;;;;;;27.55;17.33;;;1.30;99.90;;;;;;5093387;28;20127;-70
2022/11/21 10:12:36;;;;;;;26.60;17.13;;;1.40;99.90;;;;;;5112270;28;20172;-70
2022/11/21 10:15:20;;;;;;;24.70;15.35;;;1.40;99.90;;;;;;5111847;28;20043;-70
2022/11/21 10:18:12;;;;;;;26.85;15.98;;;1.30;99.90;;;;;;5111098;28;20040;-70
2022/11/21 10:20:56;;;;;;;26.80;15.90;;;1.40;99.90;;;;;;5093873;28;20428;-70
2022/11/21 10:23:42;;;;;;;24.38;16.73;;;1.40;99.90;;;;;;5111628;28;20518;-70
2022/11/21 10:26:35;;;;;;;26.00;17.23;;;1.40;99.90;;;;;;5093745;28;20050;-69
2022/11/21 10:29:22;;;;;;;28.08;16.52;;;1.30;99.90;;;;;;5114380;28;20416;-64
2022/11/21 10:31:48;;;;;;;26.67;14.77;;;1.40;99.90;;;;;;5115236;28;20043;-67
2022/11/21 10:34:19;;;;;;;26.15;16.52;;;1.40;99.90;;;;;;5114804;28;20051;-71
2022/11/21 10:36:51;;;;;;;26.00;15.25;;;1.40;99.90;;;;;;5114374;28;20040;-71
2022/11/21 10:39:28;;;;;;;30.73;16.20;;;1.40;99.90;;;;;;5113947;28;20047;-68
2022/11/21 10:42:27;;;;;;;32.10;15.57;;;1.40;99.90;;;;;;5114771;28;20036;-70
2022/11/21 10:47:37;;;;;;;32.33;17.45;;;1.70;99.90;;;;;;5114202;28;20073;-66
2022/11/21 10:50:09;;;;;;;29.40;15.88;;;1.70;99.90;;;;;;5114162;28;20048;-68
2022/11/21 10:52:44;;;;;;;25.20;15.18;;;1.90;99.90;;;;;;5094249;28;20040;-68
2022/11/21 10:55:12;;;;;;;23.60;15.63;;;1.90;99.90;;;;;;5093757;28;20062;-69
2022/11/21 10:57:50;;;;;;;25.40;14.90;;;1.90;99.90;;;;;;5098943;28;20106;-68
2022/11/21 11:00:26;;;;;;;25.23;15.90;;;2.00;99.90;;;;;;5113797;28;20051;-70
2022/11/21 11:03:05;;;;;;;22.30;14.07;;;2.10;99.90;;;;;;5113305;28;20035;-73
2022/11/21 11:05:40;;;;;;;20.40;12.60;;;2.10;99.90;;;;;;5112411;28;20078;-70
2022/11/21 11:08:11;;;;;;;21.85;13.25;;;2.20;99.90;;;;;;5112075;28;20061;-69
2022/11/21 11:10:41;;;;;;;20.13;13.75;;;2.20;99.90;;;;;;5114180;28;20039;-70
2022/11/21 11:16:19;;;;;;;20.77;14.18;;;2.30;99.90;;;;;;5113187;28;20091;-70
2022/11/21 11:19:02;;;;;;;18.85;11.82;;;2.30;99.90;;;;;;5102133;28;20055;-70
2022/11/21 11:21:40;;;;;;;21.67;13.55;;;2.30;99.90;;;;;;5112163;28;20431;-69
2022/11/21 11:24:08;;;;;;;21.98;13.93;;;2.40;99.90;;;;;;5096395;28;20039;-70
2022/11/21 11:26:48;;;;;;;21.02;13.60;;;2.40;99.90;;;;;;5112961;28;20089;-69
2022/11/21 11:29:23;;;;;;;18.83;12.52;;;2.50;99.90;;;;;;5113049;28;20392;-69
2022/11/21 11:31:57;;;;;;;19.08;12.00;;;2.50;99.90;;;;;;5096725;28;20052;-69
2022/11/21 11:34:34;;;;;;;21.73;12.70;;;2.60;99.90;;;;;;5124655;27;20816;-69
2022/11/21 11:37:24;;;;;;;22.58;13.77;;;2.70;99.90;;;;;;5134063;27;20470;-70
2022/11/21 11:40:24;;;;;;;20.50;11.90;;;2.70;99.90;;;;;;5133984;27;20122;-69
2022/11/21 11:49:16;;;;;;;16.92;11.00;;;2.90;99.90;;;;;;5111965;28;20043;-69
2022/11/21 11:51:49;;;;;;;15.52;10.68;;;2.90;99.90;;;;;;5112282;28;20040;-69
2022/11/21 11:54:26;;;;;;;18.60;10.88;;;2.90;99.90;;;;;;5095836;28;20400;-69
2022/11/21 11:56:53;;;;;;;17.63;11.70;;;2.90;99.90;;;;;;5112236;28;20086;-68
2022/11/21 11:59:31;;;;;;;19.13;10.90;;;3.00;99.90;;;;;;5112235;28;20043;-69
2022/11/21 12:01:57;;;;;;;17.38;10.38;;;3.00;99.90;;;;;;5120140;27;20040;-69
2022/11/21 12:04:24;;;;;;;16.27;10.05;;;3.10;99.90;;;;;;5112635;28;20043;-61
2022/11/21 12:07:02;;;;;;;15.15;10.05;;;3.10;99.90;;;;;;5112316;28;20480;-61
2022/11/21 12:09:33;;;;;;;18.73;11.35;;;3.20;99.90;;;;;;5112848;28;20035;-61
2022/11/21 12:12:27;;;;;;;16.60;10.75;;;3.20;99.90;;;;;;5112730;28;20039;-61
2022/11/21 12:18:18;;;;;;;14.38;9.43;;;3.30;99.90;;;;;;5113183;28;20079;-61
2022/11/21 12:20:49;;;;;;;16.20;9.98;;;3.30;99.90;;;;;;5112507;28;20068;-61
2022/11/21 12:23:17;;;;;;;14.40;9.40;;;3.30;99.90;;;;;;5112573;28;20046;-61
2022/11/21 12:25:58;;;;;;;16.55;10.95;;;3.40;99.90;;;;;;5095415;28;20036;-61
2022/11/21 12:29:02;;;;;;;17.33;10.45;;;3.40;99.90;;;;;;5112637;28;20089;-61
2022/11/21 12:31:57;;;;;;;15.55;9.05;;;3.50;99.90;;;;;;5023168;28;20059;-61
2022/11/21 12:35:00;;;;;;;15.93;9.60;;;3.50;99.90;;;;;;5094601;28;20040;-61
2022/11/21 12:37:47;;;;;;;13.85;8.70;;;3.60;99.90;;;;;;5090869;28;20401;-61
2022/11/21 12:42:48;;;;;;;15.52;9.10;;;3.60;99.90;;;;;;5101332;28;20108;-61
2022/11/21 12:43:58;;;;;;;16.58;10.10;;;3.60;99.90;;;;;;5112093;28;20048;-62
2022/11/21 12:46:31;;;;;;;14.88;9.10;;;3.60;99.90;;;;;;5112648;28;20063;-62
2022/11/21 12:55:36;;;;;;;16.23;9.45;;;3.80;99.90;;;;;;5112656;28;20426;-62
2022/11/21 12:58:23;;;;;;;15.50;9.32;;;3.80;99.90;;;;;;5090704;28;20076;-62
2022/11/21 13:01:01;;;;;;;15.15;8.93;;;3.90;99.90;;;;;;5108586;28;20039;-62
2022/11/21 13:03:43;;;;;;;13.52;8.85;;;4.00;99.90;;;;;;5112209;28;20530;-62
2022/11/21 13:06:17;;;;;;;14.00;8.85;;;4.00;99.90;;;;;;5110061;28;20065;-62
2022/11/21 13:08:46;;;;;;;15.65;10.45;;;4.10;99.90;;;;;;5111868;28;20519;-62
2022/11/21 13:14:27;;;;;;;16.75;9.90;;;4.20;99.90;;;;;;5111614;28;20053;-61
2022/11/21 13:17:28;;;;;;;15.75;10.05;;;4.20;99.90;;;;;;5113001;28;20122;-65
2022/11/21 13:20:02;;;;;;;15.43;9.80;;;4.30;99.90;;;;;;5093936;28;20485;-63
2022/11/21 13:22:48;;;;;;;14.10;9.27;;;4.20;99.90;;;;;;5110587;28;20044;-63
2022/11/21 13:25:38;;;;;;;13.27;9.57;;;4.20;99.90;;;;;;5094044;28;20043;-63